Time;durP1;ratioP1;P1;durP2;ratioP2;P2;SDS_P1;SDS_P2;PMS_P1;PMS_P2;Temp;Humidity;BMP_temperature;BMP_pressure;BME280_temperature;BME280_humidity;BME280_pressure;Samples;Min_cycle;Max_cycle;Signal;HPM_P1;HPM_P2
2022/08/09 00:01:10;;;;;;;2.55;1.70;;;;;;;;;;5015606;28;20233;-90
2022/08/09 00:03:37;;;;;;;1.50;1.40;;;;;;;;;;5015565;28;20235;-90
2022/08/09 00:06:07;;;;;;;3.38;2.00;;;;;;;;;;5015106;28;20249;-90
2022/08/09 00:08:35;;;;;;;3.05;1.67;;;;;;;;;;5014001;28;20227;-90
2022/08/09 00:11:04;;;;;;;2.10;1.65;;;;;;;;;;5015402;28;20253;-90
2022/08/09 00:13:33;;;;;;;3.03;1.90;;;;;;;;;;5009479;28;20203;-91
2022/08/09 00:16:01;;;;;;;2.17;1.80;;;;;;;;;;5015377;28;20210;-89
2022/08/09 00:18:28;;;;;;;2.28;1.83;;;;;;;;;;5014571;28;20222;-89
2022/08/09 00:21:00;;;;;;;2.85;2.10;;;;;;;;;;5015463;28;20206;-90
2022/08/09 00:23:40;;;;;;;1.67;1.50;;;;;;;;;;5014864;28;20206;-89
2022/08/09 00:26:10;;;;;;;2.38;1.70;;;;;;;;;;5015228;28;20229;-89
2022/08/09 00:28:42;;;;;;;2.95;1.80;;;;;;;;;;5009967;28;20289;-90
2022/08/09 00:31:09;;;;;;;2.38;1.80;;;;;;;;;;5015094;28;20281;-89
2022/08/09 00:33:38;;;;;;;2.10;1.90;;;;;;;;;;5015399;28;20238;-90
2022/08/09 00:36:06;;;;;;;2.30;2.10;;;;;;;;;;5015001;28;20203;-90
2022/08/09 00:38:34;;;;;;;3.13;2.05;;;;;;;;;;5014715;28;20767;-89
2022/08/09 00:41:01;;;;;;;3.60;1.92;;;;;;;;;;5015086;28;20202;-89
2022/08/09 00:43:44;;;;;;;4.10;2.05;;;;;;;;;;5013072;28;20214;-90
2022/08/09 00:46:19;;;;;;;1.73;1.63;;;;;;;;;;5015155;28;20226;-90
2022/08/09 00:48:50;;;;;;;2.63;1.90;;;;;;;;;;5008617;28;20226;-90
2022/08/09 00:51:20;;;;;;;1.50;1.40;;;;;;;;;;5014755;28;20272;-89
2022/08/09 00:53:54;;;;;;;2.13;1.73;;;;;;;;;;5014499;28;20214;-90
2022/08/09 00:56:21;;;;;;;1.95;1.70;;;;;;;;;;5014037;28;20222;-90
2022/08/09 00:58:51;;;;;;;1.90;1.70;;;;;;;;;;5014403;28;20222;-89
2022/08/09 01:04:30;;;;;;;;;;;;;;;;;;;;;
2022/08/09 01:07:21;;;;;;;2.30;1.75;;;;;;;;;;5009331;28;20218;-89
2022/08/09 01:13:04;;;;;;;2.10;1.77;;;;;;;;;;5013924;28;20205;-89
2022/08/09 01:15:40;;;;;;;2.53;1.73;;;;;;;;;;5000617;28;20737;-89
2022/08/09 01:18:14;;;;;;;3.15;1.52;;;;;;;;;;5013377;28;20218;-89
2022/08/09 01:20:50;;;;;;;2.00;1.60;;;;;;;;;;5013642;28;20219;-89
2022/08/09 01:23:32;;;;;;;2.42;1.67;;;;;;;;;;5008300;28;20209;-89
2022/08/09 01:26:09;;;;;;;2.72;1.60;;;;;;;;;;5014208;28;20309;-89
2022/08/09 01:28:44;;;;;;;3.28;1.65;;;;;;;;;;5013313;28;20241;-89
2022/08/09 01:31:43;;;;;;;2.30;1.83;;;;;;;;;;5009298;28;20225;-89
2022/08/09 01:34:18;;;;;;;3.30;1.88;;;;;;;;;;5009707;28;20280;-90
2022/08/09 01:39:37;;;;;;;2.15;1.60;;;;;;;;;;5011856;28;20230;-90
2022/08/09 01:42:09;;;;;;;2.30;1.80;;;;;;;;;;5007878;28;20214;-90
2022/08/09 01:47:27;;;;;;;2.47;1.63;;;;;;;;;;5011959;28;20234;-90
2022/08/09 01:50:02;;;;;;;1.98;1.85;;;;;;;;;;5009659;28;20225;-89
2022/08/09 01:52:30;;;;;;;2.38;1.85;;;;;;;;;;5010743;28;20210;-90
2022/08/09 01:55:16;;;;;;;1.70;1.60;;;;;;;;;;5016780;28;20206;-91
2022/08/09 01:57:50;;;;;;;2.38;1.58;;;;;;;;;;5012175;28;20321;-90
2022/08/09 02:00:21;;;;;;;2.92;1.50;;;;;;;;;;5013914;28;20233;-91
2022/08/09 02:02:50;;;;;;;2.80;1.63;;;;;;;;;;5014594;28;20297;-92
2022/08/09 02:05:19;;;;;;;2.88;1.77;;;;;;;;;;5014300;28;20203;-91
2022/08/09 02:07:49;;;;;;;2.90;1.77;;;;;;;;;;5013347;28;20242;-91
2022/08/09 02:10:19;;;;;;;2.10;1.63;;;;;;;;;;5013650;28;20213;-91
2022/08/09 02:12:47;;;;;;;2.30;1.60;;;;;;;;;;5014469;28;20272;-91
2022/08/09 02:15:16;;;;;;;2.63;1.65;;;;;;;;;;5014425;28;20214;-91
2022/08/09 02:17:50;;;;;;;1.60;1.50;;;;;;;;;;5014470;28;20221;-91
2022/08/09 02:20:17;;;;;;;2.03;1.60;;;;;;;;;;5013790;28;20204;-91
2022/08/09 02:22:49;;;;;;;1.73;1.63;;;;;;;;;;5014472;28;20207;-92
2022/08/09 02:25:19;;;;;;;2.75;1.73;;;;;;;;;;5013948;28;20206;-91
2022/08/09 02:27:50;;;;;;;1.75;1.63;;;;;;;;;;5013317;28;20210;-91
2022/08/09 02:30:17;;;;;;;2.28;1.80;;;;;;;;;;5013959;28;20242;-92
2022/08/09 02:32:54;;;;;;;1.88;1.75;;;;;;;;;;5014369;28;20241;-91
2022/08/09 02:35:30;;;;;;;1.70;1.60;;;;;;;;;;5014272;28;20210;-92
2022/08/09 02:38:00;;;;;;;2.50;1.90;;;;;;;;;;5013642;28;20202;-92
2022/08/09 02:40:30;;;;;;;3.20;1.75;;;;;;;;;;5013290;28;20203;-91
2022/08/09 02:43:10;;;;;;;2.50;1.75;;;;;;;;;;5012854;28;20213;-91
2022/08/09 02:45:51;;;;;;;2.20;1.50;;;;;;;;;;5012596;28;20209;-91
2022/08/09 02:48:24;;;;;;;1.80;1.50;;;;;;;;;;5012420;28;20293;-91
2022/08/09 02:51:05;;;;;;;4.32;1.85;;;;;;;;;;5014003;28;20646;-91
2022/08/09 02:53:42;;;;;;;1.70;1.60;;;;;;;;;;5014594;28;20210;-91
2022/08/09 02:56:10;;;;;;;1.52;1.42;;;;;;;;;;5013249;28;20198;-90
2022/08/09 02:58:44;;;;;;;2.85;1.50;;;;;;;;;;5012482;28;20222;-91
2022/08/09 03:01:17;;;;;;;2.30;1.40;;;;;;;;;;5013089;28;20229;-91
2022/08/09 03:03:48;;;;;;;1.80;1.70;;;;;;;;;;5012409;28;20214;-91
2022/08/09 03:06:25;;;;;;;1.77;1.50;;;;;;;;;;5012679;28;20234;-91
2022/08/09 03:08:56;;;;;;;2.92;1.60;;;;;;;;;;5011993;28;20222;-91
2022/08/09 03:11:32;;;;;;;2.83;1.70;;;;;;;;;;5012735;28;20206;-91
2022/08/09 03:14:06;;;;;;;1.70;1.60;;;;;;;;;;5009807;28;20241;-91
2022/08/09 03:16:34;;;;;;;2.05;1.70;;;;;;;;;;5012451;28;20226;-91
2022/08/09 03:19:04;;;;;;;2.00;1.45;;;;;;;;;;5012788;28;20229;-91
2022/08/09 03:21:36;;;;;;;1.85;1.65;;;;;;;;;;5018317;28;20210;-91
2022/08/09 03:24:09;;;;;;;2.42;1.65;;;;;;;;;;5018900;28;20269;-91
2022/08/09 03:26:55;;;;;;;3.15;1.52;;;;;;;;;;5018613;28;20222;-91
2022/08/09 03:29:39;;;;;;;1.95;1.65;;;;;;;;;;5026119;22;20240;-92
2022/08/09 03:32:20;;;;;;;1.80;1.67;;;;;;;;;;5006325;28;20564;-91
2022/08/09 03:34:58;;;;;;;1.67;1.58;;;;;;;;;;5019960;28;20649;-91
2022/08/09 03:37:33;;;;;;;1.63;1.52;;;;;;;;;;5020267;28;20222;-91
2022/08/09 03:40:00;;;;;;;2.55;1.80;;;;;;;;;;5050347;28;20225;-90
2022/08/09 03:42:30;;;;;;;2.00;1.50;;;;;;;;;;5038663;28;20214;-91
2022/08/09 03:44:58;;;;;;;1.95;1.75;;;;;;;;;;5046195;28;20223;-91
2022/08/09 03:47:28;;;;;;;3.00;1.70;;;;;;;;;;5045482;28;20237;-91
2022/08/09 03:50:00;;;;;;;2.47;1.88;;;;;;;;;;5037388;28;20221;-91
2022/08/09 03:52:31;;;;;;;1.77;1.50;;;;;;;;;;5045480;28;20206;-91
2022/08/09 03:55:02;;;;;;;1.70;1.60;;;;;;;;;;5025212;28;20211;-90
2022/08/09 03:57:35;;;;;;;2.22;1.50;;;;;;;;;;5010444;28;20273;-91
2022/08/09 04:00:04;;;;;;;2.80;1.70;;;;;;;;;;5008551;28;20396;-91
2022/08/09 04:02:32;;;;;;;2.00;1.90;;;;;;;;;;5004715;28;20202;-92
2022/08/09 04:05:02;;;;;;;1.95;1.70;;;;;;;;;;5021340;28;20199;-92
2022/08/09 04:07:32;;;;;;;2.17;1.60;;;;;;;;;;5020048;28;20222;-92
2022/08/09 04:10:07;;;;;;;2.17;1.70;;;;;;;;;;5020796;28;20236;-91
2022/08/09 04:12:42;;;;;;;2.08;1.73;;;;;;;;;;5024560;28;20233;-91
2022/08/09 04:15:12;;;;;;;2.10;1.88;;;;;;;;;;5036328;28;20727;-92
2022/08/09 04:17:48;;;;;;;1.65;1.48;;;;;;;;;;5018507;28;20199;-92
2022/08/09 04:20:16;;;;;;;1.95;1.80;;;;;;;;;;5019531;28;20213;-91
2022/08/09 04:22:49;;;;;;;3.00;1.70;;;;;;;;;;5015633;28;20268;-92
2022/08/09 04:25:25;;;;;;;1.77;1.67;;;;;;;;;;5016117;28;20210;-92
2022/08/09 04:27:58;;;;;;;2.08;1.70;;;;;;;;;;5018753;28;20272;-92
2022/08/09 04:30:26;;;;;;;2.10;1.90;;;;;;;;;;5021017;28;20206;-92
2022/08/09 04:39:42;;;;;;;2.13;1.92;;;;;;;;;;4908734;28;20204;-86
2022/08/09 04:45:40;;;;;;;2.78;1.90;;;;;;;;;;4971181;28;20211;-86
2022/08/09 04:48:28;;;;;;;2.78;1.70;;;;;;;;;;4948054;28;20297;-84
2022/08/09 04:53:59;;;;;;;3.90;2.00;;;;;;;;;;4971392;28;20257;-84
2022/08/09 04:59:33;;;;;;;3.40;2.30;;;;;;;;;;4974934;28;20222;-88
2022/08/09 05:04:54;;;;;;;4.82;2.35;;;;;;;;;;5012814;22;20262;-87
2022/08/09 05:07:33;;;;;;;3.63;1.90;;;;;;;;;;4999017;28;20306;-87
2022/08/09 05:10:25;;;;;;;3.92;2.10;;;;;;;;;;5013453;28;20705;-87
2022/08/09 05:12:53;;;;;;;4.60;2.20;;;;;;;;;;5014547;28;20261;-87
2022/08/09 05:15:53;;;;;;;2.33;2.00;;;;;;;;;;5006797;28;20253;-87
2022/08/09 05:57:47;;;;;;;2.58;2.10;;;;;;;;;;5003769;28;20218;-85
2022/08/09 06:03:25;;;;;;;3.45;2.42;;;;;;;;;;5001268;28;20211;-85
2022/08/09 06:06:32;;;;;;;2.70;2.20;;;;;;;;;;5000955;28;20314;-85
2022/08/09 06:12:10;;;;;;;3.45;2.15;;;;;;;;;;4941700;28;20211;-85
2022/08/09 06:15:07;;;;;;;3.60;2.10;;;;;;;;;;5021438;22;20226;-85
2022/08/09 08:23:08;;;;;;;3.28;2.45;;;;;;;;;;5073294;28;20187;-87
2022/08/09 09:11:26;;;;;;;2.40;2.22;;;;;;;;;;4914290;29;20213;-86
2022/08/09 10:07:06;;;;;;;3.03;2.83;;;;;;;;;;5068845;22;20310;-90
2022/08/09 10:09:51;;;;;;;3.00;2.80;;;;;;;;;;5066990;28;20204;-88
2022/08/09 10:15:14;;;;;;;2.70;2.50;;;;;;;;;;4985197;28;20215;-88
2022/08/09 10:17:43;;;;;;;2.50;2.30;;;;;;;;;;5033688;28;20202;-87
2022/08/09 10:20:24;;;;;;;26.45;13.80;;;;;;;;;;5055321;28;20205;-87
2022/08/09 10:22:54;;;;;;;50.42;26.70;;;;;;;;;;5041608;28;20198;-87
2022/08/09 10:25:23;;;;;;;43.30;23.42;;;;;;;;;;5047169;28;20225;-87
2022/08/09 10:27:51;;;;;;;50.40;24.83;;;;;;;;;;5041036;28;20240;-87
2022/08/09 10:30:18;;;;;;;53.38;25.80;;;;;;;;;;5045609;28;20199;-87
2022/08/09 10:33:12;;;;;;;42.42;24.65;;;;;;;;;;5033140;28;20277;-86
2022/08/09 14:01:31;;;;;;;1.52;1.40;;;;;;;;;;4974697;28;20202;-89
2022/08/09 21:19:41;;;;;;;3.03;2.72;;;;;;;;;;4945349;29;20212;-89
2022/08/09 21:31:08;;;;;;;2.35;2.13;;;;;;;;;;4938063;29;20229;-90
2022/08/09 21:33:45;;;;;;;2.85;2.50;;;;;;;;;;4950393;29;20244;-89
2022/08/09 21:36:20;;;;;;;3.10;2.65;;;;;;;;;;4948825;29;20227;-89
2022/08/09 21:39:11;;;;;;;2.50;2.30;;;;;;;;;;4932925;29;20231;-88
2022/08/09 21:44:31;;;;;;;2.10;2.00;;;;;;;;;;4953664;29;20208;-89
2022/08/09 21:47:06;;;;;;;2.50;2.30;;;;;;;;;;4930336;29;20212;-89
2022/08/09 21:50:06;;;;;;;2.20;2.00;;;;;;;;;;4944953;29;20235;-89
2022/08/09 21:53:06;;;;;;;2.50;2.30;;;;;;;;;;4941927;29;20216;-89
2022/08/09 21:55:52;;;;;;;;;;;;;;;;;;;;;
2022/08/09 21:58:23;;;;;;;2.30;2.00;;;;;;;;;;4947797;29;20207;-89
2022/08/09 22:04:14;;;;;;;2.60;2.40;;;;;;;;;;4930573;29;20213;-89
2022/08/09 22:09:30;;;;;;;2.45;2.25;;;;;;;;;;4940726;29;20236;-89
2022/08/09 22:11:59;;;;;;;2.20;2.10;;;;;;;;;;4939287;29;20209;-89
2022/08/09 22:14:34;;;;;;;2.88;2.30;;;;;;;;;;4936025;29;20217;-88
2022/08/09 22:17:05;;;;;;;3.22;2.63;;;;;;;;;;4939989;29;20240;-90
2022/08/09 22:19:37;;;;;;;2.20;2.03;;;;;;;;;;4954048;29;20212;-89
2022/08/09 22:22:05;;;;;;;2.08;1.98;;;;;;;;;;4943149;29;20229;-89
2022/08/09 22:24:41;;;;;;;2.40;2.20;;;;;;;;;;4935868;29;20219;-90
2022/08/09 22:27:12;;;;;;;2.60;2.40;;;;;;;;;;4943514;29;20212;-89
2022/08/09 22:30:01;;;;;;;;;;;;;;;;;;;;;
2022/08/09 22:32:43;;;;;;;2.50;2.30;;;;;;;;;;4943973;29;20200;-89
2022/08/09 22:35:10;;;;;;;3.33;2.55;;;;;;;;;;4956697;23;20217;-90
2022/08/09 22:37:38;;;;;;;3.05;2.85;;;;;;;;;;4956020;28;20589;-91
2022/08/09 22:40:06;;;;;;;2.60;2.40;;;;;;;;;;4955331;28;20201;-92
2022/08/09 22:42:36;;;;;;;2.45;2.25;;;;;;;;;;4954131;29;20201;-91
2022/08/09 22:45:03;;;;;;;2.55;2.35;;;;;;;;;;4945949;29;20259;-90
2022/08/09 22:47:31;;;;;;;2.97;2.20;;;;;;;;;;4934912;29;20265;-91
2022/08/09 22:49:58;;;;;;;2.38;2.17;;;;;;;;;;4935211;29;20320;-90
2022/08/09 22:52:28;;;;;;;2.40;2.20;;;;;;;;;;4935103;29;20264;-90
2022/08/09 22:54:58;;;;;;;2.90;2.20;;;;;;;;;;4934998;29;20675;-91
2022/08/09 22:57:25;;;;;;;2.92;2.35;;;;;;;;;;4935068;29;20209;-91
2022/08/09 23:00:02;;;;;;;2.53;2.33;;;;;;;;;;4934637;29;20205;-91
2022/08/09 23:02:29;;;;;;;2.22;2.08;;;;;;;;;;4928911;29;20231;-91
2022/08/09 23:04:57;;;;;;;2.40;2.20;;;;;;;;;;4934674;29;20209;-91
2022/08/09 23:10:29;;;;;;;2.47;2.28;;;;;;;;;;4910723;29;20292;-91
2022/08/09 23:12:56;;;;;;;2.30;2.10;;;;;;;;;;4933817;29;20291;-90
2022/08/09 23:15:25;;;;;;;2.40;2.20;;;;;;;;;;4933712;29;20228;-90
2022/08/09 23:17:54;;;;;;;2.47;2.13;;;;;;;;;;4934633;29;20260;-91
2022/08/09 23:20:22;;;;;;;3.03;2.20;;;;;;;;;;4934244;29;20209;-91
2022/08/09 23:22:52;;;;;;;2.33;2.03;;;;;;;;;;4934703;29;20216;-91
2022/08/09 23:25:19;;;;;;;2.42;2.22;;;;;;;;;;4934345;29;20253;-90
2022/08/09 23:27:46;;;;;;;2.97;2.28;;;;;;;;;;4934563;29;20247;-91
2022/08/09 23:30:16;;;;;;;2.35;2.15;;;;;;;;;;4934042;29;20248;-90
2022/08/09 23:32:45;;;;;;;3.38;2.10;;;;;;;;;;4935012;29;20209;-90
2022/08/09 23:35:15;;;;;;;2.50;2.30;;;;;;;;;;4934325;29;20339;-91
2022/08/09 23:37:42;;;;;;;2.30;2.10;;;;;;;;;;4937204;29;20216;-90
2022/08/09 23:40:10;;;;;;;2.05;1.92;;;;;;;;;;4938222;29;20236;-91
2022/08/09 23:42:37;;;;;;;2.42;2.03;;;;;;;;;;4938448;29;20229;-90
2022/08/09 23:45:05;;;;;;;2.10;2.00;;;;;;;;;;4938418;29;20268;-91
2022/08/09 23:47:32;;;;;;;2.15;2.03;;;;;;;;;;4938126;29;20716;-91
2022/08/09 23:50:01;;;;;;;2.70;1.92;;;;;;;;;;4937980;29;20225;-90
2022/08/09 23:52:29;;;;;;;2.03;1.92;;;;;;;;;;4938218;29;20240;-90
2022/08/09 23:54:59;;;;;;;1.90;1.80;;;;;;;;;;4938741;29;20213;-90
2022/08/09 23:57:26;;;;;;;2.20;2.10;;;;;;;;;;4937663;29;20261;-91
